createdAt,value
2023-02-09T00:01:14.913Z,29.80
2023-02-09T00:03:43.389Z,30.40
2023-02-09T00:06:14.723Z,30.60
2023-02-09T00:08:42.966Z,29.00
2023-02-09T00:11:13.713Z,29.98
2023-02-09T00:13:43.165Z,32.33
2023-02-09T00:16:11.458Z,35.45
2023-02-09T00:18:39.370Z,28.70
2023-02-09T00:21:10.685Z,30.63
2023-02-09T00:23:40.729Z,34.90
2023-02-09T00:26:10.827Z,29.27
2023-02-09T00:28:39.499Z,29.35
2023-02-09T00:31:10.705Z,27.75
2023-02-09T00:33:41.417Z,29.25
2023-02-09T00:36:12.913Z,29.05
2023-02-09T00:38:43.331Z,33.87
2023-02-09T00:41:11.419Z,28.70
2023-02-09T00:43:39.310Z,32.17
2023-02-09T00:46:09.056Z,33.17
2023-02-09T00:48:37.806Z,30.20
2023-02-09T00:51:06.002Z,32.30
2023-02-09T00:53:36.268Z,28.50
2023-02-09T00:56:04.214Z,26.63
2023-02-09T00:58:32.021Z,30.67
2023-02-09T01:00:59.926Z,33.60
2023-02-09T01:03:29.229Z,32.58
2023-02-09T01:05:59.993Z,30.27
2023-02-09T01:08:28.964Z,31.83
2023-02-09T01:10:56.928Z,33.40
2023-02-09T01:13:24.816Z,35.58
2023-02-09T01:15:53.065Z,30.70
2023-02-09T01:18:20.900Z,29.02
2023-02-09T01:20:50.257Z,26.83
2023-02-09T01:23:18.058Z,33.63
2023-02-09T01:25:46.126Z,26.30
2023-02-09T01:28:14.018Z,25.30
2023-02-09T01:30:42.154Z,29.10
2023-02-09T01:33:10.054Z,29.52
2023-02-09T01:35:37.908Z,33.25
2023-02-09T01:38:07.104Z,27.42
2023-02-09T01:40:36.380Z,29.27
2023-02-09T01:43:04.279Z,30.02
2023-02-09T01:45:45.531Z,32.05
2023-02-09T01:48:14.853Z,30.20
2023-02-09T01:50:47.009Z,28.17
2023-02-09T01:53:17.642Z,27.70
2023-02-09T01:55:52.131Z,27.83
2023-02-09T01:58:23.917Z,27.85
2023-02-09T02:00:52.070Z,27.00
2023-02-09T02:03:23.661Z,29.42
2023-02-09T02:05:56.979Z,30.60
2023-02-09T02:08:48.073Z,24.70
2023-02-09T02:11:17.181Z,30.77
2023-02-09T02:13:45.666Z,29.55
2023-02-09T02:16:27.100Z,27.85
2023-02-09T02:19:17.540Z,28.92
2023-02-09T02:22:15.574Z,24.20
2023-02-09T02:25:25.432Z,23.77
2023-02-09T02:28:11.003Z,28.85
2023-02-09T02:31:05.355Z,25.25
2023-02-09T02:33:45.280Z,29.38
2023-02-09T02:36:22.826Z,29.40
2023-02-09T02:38:58.213Z,24.08
2023-02-09T02:41:52.721Z,27.88
2023-02-09T02:44:20.964Z,25.45
2023-02-09T02:46:54.044Z,33.33
2023-02-09T02:49:31.731Z,26.50
2023-02-09T02:52:04.489Z,27.45
2023-02-09T02:54:36.305Z,26.70
2023-02-09T02:57:08.660Z,26.35
2023-02-09T02:59:43.019Z,29.63
2023-02-09T03:02:14.867Z,29.33
2023-02-09T03:04:46.977Z,24.25
2023-02-09T03:07:17.828Z,27.17
2023-02-09T03:09:52.656Z,23.85
2023-02-09T03:12:35.340Z,30.50
2023-02-09T03:15:17.319Z,26.67
2023-02-09T03:17:50.346Z,28.10
2023-02-09T03:22:58.469Z,31.23
2023-02-09T03:25:31.299Z,29.75
2023-02-09T03:28:04.116Z,26.58
2023-02-09T03:30:34.775Z,29.58
2023-02-09T03:33:04.722Z,26.40
2023-02-09T03:35:39.758Z,25.42
2023-02-09T03:38:07.666Z,26.40
2023-02-09T03:40:35.758Z,25.83
2023-02-09T03:43:03.692Z,27.08
2023-02-09T03:45:31.619Z,24.10
2023-02-09T03:47:59.446Z,27.20
2023-02-09T03:50:27.313Z,24.77
2023-02-09T03:52:56.692Z,24.17
2023-02-09T03:55:25.056Z,27.20
2023-02-09T03:57:53.167Z,24.60
2023-02-09T04:00:21.597Z,26.75
2023-02-09T04:02:49.529Z,27.45
2023-02-09T04:05:17.491Z,25.73
2023-02-09T04:07:45.526Z,28.25
2023-02-09T04:10:14.804Z,30.13
2023-02-09T04:12:42.663Z,26.00
2023-02-09T04:15:11.271Z,32.30
2023-02-09T04:17:39.265Z,26.73
2023-02-09T04:20:07.704Z,26.67
2023-02-09T04:22:35.728Z,27.13
2023-02-09T04:25:03.638Z,29.05
2023-02-09T04:27:32.866Z,25.80
2023-02-09T04:30:00.725Z,27.10
2023-02-09T04:32:28.660Z,27.52
2023-02-09T04:34:56.529Z,29.45
2023-02-09T04:37:24.395Z,29.38
2023-02-09T04:39:52.235Z,23.38
2023-02-09T04:42:20.081Z,27.98
2023-02-09T04:44:49.318Z,28.67
2023-02-09T04:47:17.224Z,27.15
2023-02-09T04:49:45.115Z,25.52
2023-02-09T04:52:12.972Z,28.63
2023-02-09T04:54:40.861Z,27.20
2023-02-09T04:57:26.066Z,28.73
2023-02-09T04:59:55.343Z,31.20
2023-02-09T05:02:23.205Z,31.55
2023-02-09T05:04:51.124Z,26.85
2023-02-09T05:07:19.009Z,30.63
2023-02-09T05:09:46.911Z,33.17
2023-02-09T05:12:15.146Z,29.75
2023-02-09T05:14:43.166Z,30.38
2023-02-09T05:17:12.497Z,28.15
2023-02-09T05:19:40.470Z,30.42
2023-02-09T05:22:08.390Z,26.25
2023-02-09T05:24:36.493Z,29.85
2023-02-09T05:27:06.859Z,27.13
2023-02-09T05:29:34.775Z,25.02
2023-02-09T05:32:02.888Z,27.52
2023-02-09T05:34:32.303Z,28.98
2023-02-09T05:37:00.223Z,26.63
2023-02-09T05:39:28.145Z,26.05
2023-02-09T05:42:09.906Z,25.90
2023-02-09T05:44:37.795Z,31.85
2023-02-09T05:47:05.847Z,29.23
2023-02-09T05:49:35.530Z,22.27
2023-02-09T05:52:04.146Z,27.27
2023-02-09T05:54:32.263Z,33.05
2023-02-09T05:57:00.183Z,26.40
2023-02-09T05:59:28.161Z,25.63
2023-02-09T06:01:56.133Z,22.20
2023-02-09T06:04:25.278Z,29.08
2023-02-09T06:06:54.788Z,21.58
2023-02-09T06:09:22.941Z,25.60
2023-02-09T06:11:50.933Z,24.70
2023-02-09T06:14:19.081Z,26.42
2023-02-09T06:16:47.354Z,27.63
2023-02-09T06:19:16.287Z,31.13
2023-02-09T06:21:44.697Z,27.88
2023-02-09T06:24:14.927Z,27.08
2023-02-09T06:26:43.398Z,29.33
2023-02-09T06:29:11.435Z,29.15
2023-02-09T06:31:41.787Z,25.77
2023-02-09T06:34:10.130Z,26.88
2023-02-09T06:36:38.214Z,25.20
2023-02-09T06:39:08.551Z,26.88
2023-02-09T06:41:37.996Z,23.80
2023-02-09T06:44:06.461Z,26.20
2023-02-09T06:46:34.717Z,28.67
2023-02-09T06:49:02.816Z,26.83
2023-02-09T06:51:30.803Z,26.45
2023-02-09T06:53:58.842Z,28.92
2023-02-09T06:56:26.813Z,25.35
2023-02-09T06:58:56.025Z,23.40
2023-02-09T07:01:23.989Z,26.38
2023-02-09T07:03:51.849Z,30.30
2023-02-09T07:06:21.281Z,29.55
2023-02-09T07:08:51.302Z,31.55
2023-02-09T07:11:20.669Z,32.58
2023-02-09T07:13:48.810Z,32.75
2023-02-09T07:16:18.419Z,32.33
2023-02-09T07:18:46.420Z,26.40
2023-02-09T07:21:18.494Z,30.38
2023-02-09T07:23:46.632Z,28.40
2023-02-09T07:26:16.728Z,30.23
2023-02-09T07:28:45.353Z,30.85
2023-02-09T07:31:15.672Z,28.77
2023-02-09T07:33:45.256Z,29.67
2023-02-09T07:36:14.767Z,27.30
2023-02-09T07:38:43.456Z,29.10
2023-02-09T07:41:16.150Z,27.27
2023-02-09T07:43:44.488Z,29.55
2023-02-09T07:46:14.845Z,23.85
2023-02-09T07:48:44.258Z,28.33
2023-02-09T07:51:14.553Z,28.95
2023-02-09T07:53:42.495Z,29.13
2023-02-09T07:56:10.473Z,26.40
2023-02-09T07:58:38.436Z,27.10
2023-02-09T08:01:08.280Z,23.58
2023-02-09T08:03:37.311Z,28.05
2023-02-09T08:06:19.686Z,27.00
2023-02-09T08:08:48.907Z,26.95
2023-02-09T08:11:20.380Z,23.65
2023-02-09T08:13:49.232Z,29.55
2023-02-09T08:16:20.640Z,28.95
2023-02-09T08:18:54.090Z,25.67
2023-02-09T08:21:23.859Z,26.73
2023-02-09T08:23:57.764Z,27.33
2023-02-09T08:26:25.732Z,32.78
2023-02-09T08:28:54.603Z,28.05
2023-02-09T08:31:22.832Z,27.67
2023-02-09T08:33:51.896Z,24.90
2023-02-09T08:36:21.275Z,30.58
2023-02-09T08:38:50.925Z,24.58
2023-02-09T08:41:19.689Z,28.42
2023-02-09T08:43:51.653Z,21.55
2023-02-09T08:46:20.451Z,32.53
2023-02-09T08:48:48.585Z,28.25
2023-02-09T08:51:17.643Z,28.58
2023-02-09T08:53:52.229Z,27.98
2023-02-09T08:56:23.902Z,22.23
2023-02-09T08:58:51.834Z,26.00
2023-02-09T09:01:19.886Z,28.70
2023-02-09T09:03:48.354Z,27.67
2023-02-09T09:06:16.351Z,28.00
2023-02-09T09:08:44.395Z,29.77
2023-02-09T09:11:14.761Z,23.48
2023-02-09T09:13:44.488Z,25.13
2023-02-09T09:16:16.982Z,21.60
2023-02-09T09:18:45.627Z,21.52
2023-02-09T09:21:14.445Z,26.50
2023-02-09T09:23:42.651Z,27.42
2023-02-09T09:26:11.000Z,22.38
2023-02-09T09:28:39.266Z,25.75
2023-02-09T09:31:13.863Z,26.17
2023-02-09T09:33:42.767Z,26.60
2023-02-09T09:36:11.812Z,24.13
2023-02-09T09:38:40.627Z,28.85
2023-02-09T09:41:21.330Z,22.25
2023-02-09T09:43:49.921Z,24.55
2023-02-09T09:46:22.344Z,27.75
2023-02-09T09:48:53.021Z,24.95
2023-02-09T09:51:27.478Z,24.67
2023-02-09T09:53:56.565Z,18.55
2023-02-09T09:56:26.875Z,26.50
2023-02-09T09:58:55.221Z,20.13
2023-02-09T10:01:28.629Z,24.40
2023-02-09T10:03:59.531Z,21.77
2023-02-09T10:06:34.192Z,22.42
2023-02-09T10:09:07.014Z,20.70
2023-02-09T10:11:43.407Z,18.77
2023-02-09T10:14:11.716Z,22.27
2023-02-09T10:16:41.793Z,19.80
2023-02-09T10:19:18.983Z,20.10
2023-02-09T10:21:46.903Z,16.92
2023-02-09T10:24:17.114Z,21.80
2023-02-09T10:26:45.111Z,19.75
2023-02-09T10:29:26.062Z,19.23
2023-02-09T10:32:05.026Z,16.10
2023-02-09T10:34:41.710Z,18.17
2023-02-09T10:37:20.696Z,18.15
2023-02-09T10:39:57.120Z,19.52
2023-02-09T10:42:29.859Z,17.70
2023-02-09T10:45:04.971Z,21.55
2023-02-09T10:47:34.348Z,21.05
2023-02-09T10:50:13.702Z,18.25
2023-02-09T10:52:54.301Z,16.90
2023-02-09T10:55:27.072Z,15.25
2023-02-09T10:58:07.581Z,19.63
2023-02-09T11:00:40.218Z,18.88
2023-02-09T11:03:18.262Z,18.42
2023-02-09T11:05:48.345Z,19.33
2023-02-09T11:08:22.752Z,18.50
2023-02-09T11:11:02.019Z,19.63
2023-02-09T11:13:32.354Z,18.88
2023-02-09T11:16:26.620Z,18.35
2023-02-09T11:19:05.884Z,19.50
2023-02-09T11:21:47.837Z,18.80
2023-02-09T11:24:26.578Z,18.65
2023-02-09T11:26:58.333Z,16.98
2023-02-09T11:29:31.347Z,19.35
2023-02-09T11:32:09.029Z,18.77
2023-02-09T11:35:02.685Z,20.27
2023-02-09T11:37:49.135Z,17.85
2023-02-09T11:40:33.611Z,17.55
2023-02-09T11:43:17.872Z,20.10
2023-02-09T11:45:48.206Z,18.73
2023-02-09T11:48:24.481Z,19.38
2023-02-09T11:51:03.210Z,19.17
2023-02-09T11:53:39.538Z,17.00
2023-02-09T11:56:10.139Z,19.73
2023-02-09T11:58:45.267Z,19.55
2023-02-09T12:01:31.010Z,16.77
2023-02-09T12:04:06.687Z,21.75
2023-02-09T12:06:40.724Z,19.10
2023-02-09T12:09:28.338Z,14.68
2023-02-09T12:12:08.288Z,22.25
2023-02-09T12:14:54.156Z,16.33
2023-02-09T12:17:27.277Z,14.00
2023-02-09T12:20:00.161Z,16.42
2023-02-09T12:22:57.318Z,16.23
2023-02-09T12:26:00.781Z,21.35
2023-02-09T12:28:45.278Z,15.02
2023-02-09T12:31:24.445Z,19.30
2023-02-09T12:34:14.898Z,16.85
2023-02-09T12:37:17.176Z,18.48
2023-02-09T12:40:22.510Z,16.48
2023-02-09T12:43:28.132Z,16.80
2023-02-09T12:46:12.859Z,16.55
2023-02-09T12:48:49.513Z,18.58
2023-02-09T12:51:45.544Z,16.08
2023-02-09T12:54:42.668Z,16.73
2023-02-09T12:57:49.193Z,15.70
2023-02-09T13:00:44.126Z,15.75
2023-02-09T13:03:21.501Z,17.73
2023-02-09T13:05:51.320Z,16.75
2023-02-09T13:08:28.285Z,15.95
2023-02-09T13:11:00.554Z,16.52
2023-02-09T13:13:41.533Z,21.98
2023-02-09T13:16:36.428Z,14.80
2023-02-09T13:19:18.910Z,16.77
2023-02-09T13:21:58.593Z,20.45
2023-02-09T13:24:35.964Z,15.73
2023-02-09T13:27:17.435Z,17.98
2023-02-09T13:29:51.700Z,17.30
2023-02-09T13:32:35.104Z,13.40
2023-02-09T13:35:12.449Z,13.20
2023-02-09T13:37:45.958Z,15.57
2023-02-09T13:40:20.173Z,17.10
2023-02-09T13:43:00.724Z,17.42
2023-02-09T13:45:30.966Z,17.73
2023-02-09T13:48:01.750Z,15.00
2023-02-09T13:50:30.329Z,17.30
2023-02-09T13:53:09.209Z,15.25
2023-02-09T13:55:39.924Z,17.27
2023-02-09T13:58:10.422Z,23.10
2023-02-09T14:00:43.553Z,16.67
2023-02-09T14:03:17.837Z,15.00
2023-02-09T14:05:50.727Z,14.48
2023-02-09T14:08:20.194Z,15.85
2023-02-09T14:10:53.554Z,18.42
2023-02-09T14:13:25.905Z,14.85
2023-02-09T14:16:08.236Z,20.03
2023-02-09T14:18:48.970Z,15.82
2023-02-09T14:21:26.972Z,16.67
2023-02-09T14:24:18.414Z,16.20
2023-02-09T14:26:50.444Z,18.25
2023-02-09T14:29:22.595Z,18.88
2023-02-09T14:31:53.885Z,16.50
2023-02-09T14:34:29.291Z,16.13
2023-02-09T14:37:00.301Z,13.63
2023-02-09T14:39:31.320Z,14.68
2023-02-09T14:42:18.780Z,14.35
2023-02-09T14:44:50.401Z,16.63
2023-02-09T14:47:39.518Z,18.08
2023-02-09T14:50:11.361Z,15.40
2023-02-09T14:52:40.304Z,17.73
2023-02-09T14:55:16.829Z,13.88
2023-02-09T14:57:45.224Z,14.05
2023-02-09T15:00:19.138Z,15.00
2023-02-09T15:02:48.717Z,15.55
2023-02-09T15:05:16.935Z,14.75
2023-02-09T15:07:48.128Z,10.05
2023-02-09T15:10:25.724Z,15.95
2023-02-09T15:12:54.450Z,14.10
2023-02-09T15:15:23.650Z,17.45
2023-02-09T15:17:55.325Z,14.77
2023-02-09T15:20:25.398Z,20.23
2023-02-09T15:22:53.462Z,14.90
2023-02-09T15:25:21.916Z,16.05
2023-02-09T15:27:52.529Z,20.60
2023-02-09T15:30:23.850Z,12.48
2023-02-09T15:32:54.258Z,13.43
2023-02-09T15:35:24.592Z,17.10
2023-02-09T15:37:54.982Z,14.73
2023-02-09T15:40:38.945Z,15.52
2023-02-09T15:43:32.902Z,14.90
2023-02-09T15:46:17.895Z,18.10
2023-02-09T15:48:47.319Z,19.33
2023-02-09T15:51:16.805Z,14.43
2023-02-09T15:53:46.349Z,14.88
2023-02-09T15:56:15.372Z,13.63
2023-02-09T15:58:45.337Z,16.67
2023-02-09T16:01:15.245Z,17.27
2023-02-09T16:03:43.711Z,17.13
2023-02-09T16:06:18.423Z,16.77
2023-02-09T16:08:47.845Z,17.52
2023-02-09T16:11:20.734Z,17.10
2023-02-09T16:13:49.353Z,18.08
2023-02-09T16:16:18.366Z,13.02
2023-02-09T16:18:47.264Z,18.55
2023-02-09T16:21:30.182Z,17.85
2023-02-09T16:24:01.845Z,17.05
2023-02-09T16:26:31.227Z,15.32
2023-02-09T16:28:59.267Z,20.10
2023-02-09T16:31:27.848Z,21.92
2023-02-09T16:33:56.000Z,21.02
2023-02-09T16:36:29.829Z,21.08
2023-02-09T16:38:57.811Z,18.45
2023-02-09T16:41:43.243Z,21.98
2023-02-09T16:44:17.159Z,20.90
2023-02-09T16:46:46.163Z,20.85
2023-02-09T16:49:28.799Z,19.05
2023-02-09T16:52:01.800Z,19.53
2023-02-09T16:54:33.811Z,17.65
2023-02-09T16:57:02.720Z,18.20
2023-02-09T16:59:30.677Z,20.67
2023-02-09T17:01:59.963Z,15.95
2023-02-09T17:04:28.051Z,17.58
2023-02-09T17:06:56.090Z,17.02
2023-02-09T17:09:25.399Z,14.68
2023-02-09T17:11:53.433Z,18.45
2023-02-09T17:14:21.390Z,18.85
2023-02-09T17:16:50.095Z,20.50
2023-02-09T17:19:19.178Z,16.83
2023-02-09T17:21:47.407Z,19.40
2023-02-09T17:24:16.799Z,19.67
2023-02-09T17:26:46.304Z,16.77
2023-02-09T17:29:17.725Z,19.30
2023-02-09T17:31:53.267Z,15.30
2023-02-09T17:34:27.011Z,17.27
2023-02-09T17:39:22.839Z,17.42
2023-02-09T17:41:52.134Z,17.08
2023-02-09T17:44:35.284Z,17.65
2023-02-09T17:47:14.200Z,20.08
2023-02-09T17:49:42.087Z,18.50
2023-02-09T17:52:16.801Z,22.75
2023-02-09T17:54:45.457Z,15.55
2023-02-09T17:57:16.648Z,17.83
2023-02-09T17:59:45.982Z,16.58
2023-02-09T18:02:16.235Z,15.27
2023-02-09T18:04:44.941Z,18.77
2023-02-09T18:07:14.499Z,16.02
2023-02-09T18:09:42.553Z,19.95
2023-02-09T18:12:19.695Z,18.23
2023-02-09T18:14:47.650Z,18.77
2023-02-09T18:17:15.718Z,18.27
2023-02-09T18:19:43.622Z,19.30
2023-02-09T18:22:13.817Z,16.48
2023-02-09T18:24:41.815Z,21.48
2023-02-09T18:27:12.672Z,18.33
2023-02-09T18:29:41.910Z,16.70
2023-02-09T18:32:13.888Z,18.17
2023-02-09T18:34:42.042Z,24.17
2023-02-09T18:37:09.999Z,16.38
2023-02-09T18:39:40.779Z,17.15
2023-02-09T18:42:08.807Z,18.27
2023-02-09T18:44:36.694Z,19.40
2023-02-09T18:47:06.731Z,17.48
2023-02-09T18:49:34.659Z,18.30
2023-02-09T18:52:02.759Z,20.10
2023-02-09T18:54:32.123Z,21.02
2023-02-09T18:57:00.227Z,25.75
2023-02-09T18:59:32.249Z,23.77
2023-02-09T19:02:00.693Z,18.77
2023-02-09T19:04:30.111Z,18.15
2023-02-09T19:06:57.978Z,18.48
2023-02-09T19:09:25.935Z,16.30
2023-02-09T19:11:53.792Z,21.45
2023-02-09T19:14:40.066Z,20.35
2023-02-09T19:17:09.784Z,19.75
2023-02-09T19:19:39.588Z,20.50
2023-02-09T19:22:07.734Z,21.85
2023-02-09T19:24:35.618Z,24.35
2023-02-09T19:27:05.476Z,23.17
2023-02-09T19:29:34.015Z,18.88
2023-02-09T19:32:03.029Z,21.50
2023-02-09T19:34:32.521Z,24.05
2023-02-09T19:37:03.555Z,19.00
2023-02-09T19:39:35.007Z,24.95
2023-02-09T19:42:04.348Z,27.30
2023-02-09T19:44:32.214Z,22.02
2023-02-09T19:47:00.337Z,17.77
2023-02-09T19:49:29.351Z,21.13
2023-02-09T19:51:57.298Z,23.10
2023-02-09T19:54:26.546Z,19.73
2023-02-09T19:56:54.489Z,20.27
2023-02-09T19:59:22.363Z,22.23
2023-02-09T20:01:50.361Z,17.20
2023-02-09T20:04:18.406Z,22.27
2023-02-09T20:06:46.273Z,22.40
2023-02-09T20:09:14.177Z,22.20
2023-02-09T20:11:43.807Z,21.27
2023-02-09T20:14:12.570Z,20.13
2023-02-09T20:16:40.618Z,21.30
2023-02-09T20:19:08.572Z,21.35
2023-02-09T20:21:36.603Z,20.70
2023-02-09T20:24:09.839Z,22.30
2023-02-09T20:26:38.389Z,21.45
2023-02-09T20:29:08.518Z,22.65
2023-02-09T20:31:38.177Z,24.65
2023-02-09T20:34:07.833Z,20.90
2023-02-09T20:36:37.111Z,20.27
2023-02-09T20:39:06.662Z,26.33
2023-02-09T20:41:34.714Z,23.63
2023-02-09T20:44:20.024Z,18.90
2023-02-09T20:46:58.704Z,21.15
2023-02-09T20:49:31.437Z,21.95
2023-02-09T20:51:59.691Z,23.80
2023-02-09T20:54:27.779Z,22.20
2023-02-09T20:56:55.668Z,22.38
2023-02-09T20:59:23.583Z,22.80
2023-02-09T21:01:52.974Z,23.50
2023-02-09T21:04:22.586Z,23.23
2023-02-09T21:06:50.513Z,22.85
2023-02-09T21:09:19.151Z,20.08
2023-02-09T21:11:47.143Z,20.20
2023-02-09T21:14:27.114Z,25.65
2023-02-09T21:17:02.148Z,21.95
2023-02-09T21:19:30.051Z,23.52
2023-02-09T21:21:58.093Z,27.48
2023-02-09T21:24:25.984Z,26.67
2023-02-09T21:26:53.961Z,26.13
2023-02-09T21:29:21.877Z,30.98
2023-02-09T21:31:51.359Z,22.70
2023-02-09T21:34:20.683Z,22.42
2023-02-09T21:36:48.662Z,25.77
2023-02-09T21:39:16.580Z,24.17
2023-02-09T21:42:01.901Z,20.52
2023-02-09T21:44:30.064Z,24.00
2023-02-09T21:46:57.948Z,24.20
2023-02-09T21:49:27.203Z,22.33
2023-02-09T21:51:55.334Z,20.92
2023-02-09T21:54:25.081Z,24.85
2023-02-09T21:56:53.691Z,22.83
2023-02-09T21:59:21.755Z,20.35
2023-02-09T22:01:49.638Z,21.17
2023-02-09T22:04:17.518Z,25.70
2023-02-09T22:06:47.244Z,25.02
2023-02-09T22:09:15.397Z,27.48
2023-02-09T22:11:43.315Z,24.08
2023-02-09T22:14:11.195Z,23.30
2023-02-09T22:16:39.266Z,21.92
2023-02-09T22:19:07.414Z,24.00
2023-02-09T22:21:35.651Z,26.08
2023-02-09T22:24:05.504Z,19.60
2023-02-09T22:26:33.514Z,23.90
2023-02-09T22:29:01.778Z,21.52
2023-02-09T22:31:29.655Z,20.42
2023-02-09T22:33:58.521Z,20.52
2023-02-09T22:36:26.782Z,21.60
2023-02-09T22:38:54.800Z,20.70
2023-02-09T22:41:24.833Z,25.27
2023-02-09T22:43:54.967Z,19.48
2023-02-09T22:46:26.140Z,20.98
2023-02-09T22:48:55.621Z,25.65
2023-02-09T22:51:24.983Z,25.30
2023-02-09T22:53:52.995Z,22.20
2023-02-09T22:56:20.969Z,24.02
2023-02-09T22:58:50.262Z,22.15
2023-02-09T23:01:18.814Z,20.00
2023-02-09T23:03:46.824Z,23.08
2023-02-09T23:06:17.393Z,21.13
2023-02-09T23:08:45.540Z,22.70
2023-02-09T23:11:16.159Z,25.30
2023-02-09T23:13:44.793Z,22.67
2023-02-09T23:16:16.438Z,22.17
2023-02-09T23:18:47.437Z,19.23
2023-02-09T23:21:16.437Z,21.50
2023-02-09T23:23:44.455Z,27.50
2023-02-09T23:26:13.275Z,21.25
2023-02-09T23:28:41.160Z,26.75
2023-02-09T23:31:13.012Z,22.15
2023-02-09T23:33:42.897Z,20.73
2023-02-09T23:36:13.584Z,23.80
2023-02-09T23:38:41.910Z,20.38
2023-02-09T23:41:11.650Z,22.35
2023-02-09T23:43:40.263Z,20.17
2023-02-09T23:46:11.091Z,24.70
2023-02-09T23:48:39.034Z,28.15
2023-02-09T23:51:10.055Z,28.30
2023-02-09T23:53:38.298Z,22.90
2023-02-09T23:56:06.464Z,23.00
2023-02-09T23:58:36.255Z,25.45
